createdAt,value
2022-11-14T00:00:01.685Z,2.52
2022-11-14T00:02:28.202Z,2.20
2022-11-14T00:07:34.994Z,2.24
2022-11-14T00:10:01.523Z,2.07
2022-11-14T00:12:27.936Z,1.89
2022-11-14T00:14:55.866Z,1.82
2022-11-14T00:17:22.297Z,1.83
2022-11-14T00:19:48.697Z,2.15
2022-11-14T00:22:15.085Z,1.92
2022-11-14T00:24:41.485Z,1.76
2022-11-14T00:27:07.875Z,2.03
2022-11-14T00:29:34.293Z,2.09
2022-11-14T00:32:00.703Z,1.83
2022-11-14T00:34:27.130Z,1.60
2022-11-14T00:36:53.535Z,1.49
2022-11-14T00:39:19.917Z,1.44
2022-11-14T00:41:46.361Z,1.42
2022-11-14T00:44:12.758Z,1.41
2022-11-14T00:46:39.276Z,1.39
2022-11-14T00:49:05.754Z,1.42
2022-11-14T00:51:32.199Z,1.43
2022-11-14T00:53:58.666Z,1.45
2022-11-14T00:56:25.152Z,1.49
2022-11-14T00:58:51.533Z,1.48
2022-11-14T01:01:17.997Z,1.45
2022-11-14T01:03:47.288Z,1.38
2022-11-14T01:06:15.804Z,1.35
2022-11-14T01:08:42.549Z,1.35
2022-11-14T01:11:13.123Z,1.35
2022-11-14T01:13:39.609Z,1.36
2022-11-14T01:16:06.273Z,1.40
2022-11-14T01:18:32.805Z,1.39
2022-11-14T01:20:59.498Z,1.37
2022-11-14T01:23:25.938Z,1.36
2022-11-14T01:25:52.360Z,1.36
2022-11-14T01:28:19.682Z,1.34
2022-11-14T01:30:46.144Z,1.31
2022-11-14T01:33:12.516Z,1.30
2022-11-14T01:35:39.114Z,1.34
2022-11-14T01:38:05.693Z,1.39
2022-11-14T01:40:32.459Z,1.45
2022-11-14T01:43:10.978Z,1.50
2022-11-14T01:45:46.550Z,1.54
2022-11-14T01:48:18.859Z,1.63
2022-11-14T01:50:45.318Z,1.71
2022-11-14T01:53:11.768Z,1.73
2022-11-14T01:55:38.178Z,1.73
2022-11-14T01:58:04.603Z,1.70
2022-11-14T02:00:31.022Z,1.59
2022-11-14T02:02:57.515Z,1.52
2022-11-14T02:05:23.887Z,1.48
2022-11-14T02:07:50.341Z,1.43
2022-11-14T02:10:18.100Z,1.35
2022-11-14T02:12:44.915Z,1.33
2022-11-14T02:15:11.387Z,1.38
2022-11-14T02:17:37.802Z,1.39
2022-11-14T02:20:14.717Z,1.45
2022-11-14T02:22:41.992Z,1.49
2022-11-14T02:25:09.206Z,1.50
2022-11-14T02:27:35.663Z,1.54
2022-11-14T02:30:05.310Z,1.58
2022-11-14T02:32:45.011Z,1.64
2022-11-14T02:35:18.163Z,1.71
2022-11-14T02:37:44.629Z,1.73
2022-11-14T02:40:11.360Z,1.67
2022-11-14T02:42:37.804Z,1.59
2022-11-14T02:45:04.379Z,1.58
2022-11-14T02:47:30.876Z,1.50
2022-11-14T02:49:57.244Z,1.48
2022-11-14T02:52:23.683Z,1.52
2022-11-14T02:54:54.317Z,1.56
2022-11-14T02:57:21.153Z,1.54
2022-11-14T02:59:47.570Z,1.52
2022-11-14T03:02:14.352Z,1.52
2022-11-14T03:04:40.834Z,1.62
2022-11-14T03:07:07.308Z,1.60
2022-11-14T03:09:33.803Z,1.61
2022-11-14T03:12:00.230Z,1.63
2022-11-14T03:14:26.629Z,1.66
2022-11-14T03:16:54.842Z,1.68
2022-11-14T03:19:21.241Z,1.62
2022-11-14T03:21:47.663Z,1.55
2022-11-14T03:24:14.056Z,1.60
2022-11-14T03:26:40.449Z,1.55
2022-11-14T03:29:07.068Z,1.52
2022-11-14T03:31:33.473Z,1.48
2022-11-14T03:33:59.900Z,1.36
2022-11-14T03:36:26.303Z,1.35
2022-11-14T03:38:52.758Z,1.26
2022-11-14T03:41:19.144Z,1.16
2022-11-14T03:43:45.532Z,1.24
2022-11-14T03:46:11.896Z,1.27
2022-11-14T03:48:38.704Z,1.29
2022-11-14T03:51:05.200Z,1.24
2022-11-14T03:53:31.607Z,1.12
2022-11-14T03:55:57.992Z,1.05
2022-11-14T03:58:24.458Z,1.00
2022-11-14T04:00:51.066Z,0.93
2022-11-14T04:03:17.551Z,0.71
2022-11-14T04:05:45.307Z,0.64
2022-11-14T04:08:11.774Z,0.62
2022-11-14T04:10:38.173Z,0.61
2022-11-14T04:13:04.952Z,0.65
2022-11-14T04:15:31.388Z,0.67
2022-11-14T04:17:58.053Z,0.68
2022-11-14T04:20:24.444Z,0.75
2022-11-14T04:22:50.904Z,0.90
2022-11-14T04:25:17.360Z,0.94
2022-11-14T04:27:43.915Z,1.06
2022-11-14T04:30:10.614Z,1.21
2022-11-14T04:32:37.025Z,1.53
2022-11-14T04:35:03.469Z,1.65
2022-11-14T04:37:29.899Z,1.98
2022-11-14T04:40:00.721Z,2.03
2022-11-14T04:42:27.209Z,1.88
2022-11-14T04:44:53.661Z,2.04
2022-11-14T04:47:20.393Z,2.26
2022-11-14T04:49:46.803Z,2.64
2022-11-14T04:52:13.224Z,2.79
2022-11-14T04:54:39.636Z,2.69
2022-11-14T04:57:06.086Z,2.68
2022-11-14T04:59:32.499Z,2.91
2022-11-14T05:01:58.927Z,3.29
2022-11-14T05:04:25.353Z,3.86
2022-11-14T05:06:51.762Z,3.86
2022-11-14T05:09:18.257Z,3.87
2022-11-14T05:11:44.643Z,4.10
2022-11-14T05:14:11.041Z,3.91
2022-11-14T05:16:37.481Z,3.74
2022-11-14T05:19:04.119Z,3.69
2022-11-14T05:21:30.537Z,3.65
2022-11-14T05:23:56.974Z,3.59
2022-11-14T05:26:23.419Z,3.66
2022-11-14T05:28:49.847Z,3.87
2022-11-14T05:31:19.271Z,3.97
2022-11-14T05:33:46.848Z,4.05
2022-11-14T05:36:13.971Z,4.18
2022-11-14T05:38:41.340Z,4.18
2022-11-14T05:41:11.954Z,4.38
2022-11-14T05:43:38.407Z,4.40
2022-11-14T05:46:05.950Z,4.41
2022-11-14T05:48:32.836Z,4.47
2022-11-14T05:51:00.216Z,4.42
2022-11-14T05:53:27.009Z,4.47
2022-11-14T05:55:53.426Z,4.30
2022-11-14T05:58:19.933Z,4.13
2022-11-14T06:00:53.496Z,3.93
2022-11-14T06:03:20.707Z,3.76
2022-11-14T06:05:47.102Z,3.82
2022-11-14T06:08:13.797Z,3.79
2022-11-14T06:10:40.286Z,3.74
2022-11-14T06:13:06.673Z,3.93
2022-11-14T06:15:33.069Z,3.92
2022-11-14T06:17:59.463Z,3.89
2022-11-14T06:20:25.889Z,3.85
2022-11-14T06:22:54.058Z,3.85
2022-11-14T06:25:20.557Z,4.00
2022-11-14T06:27:46.967Z,4.09
2022-11-14T06:30:13.535Z,4.18
2022-11-14T06:32:39.912Z,4.13
2022-11-14T06:35:08.437Z,4.06
2022-11-14T06:37:37.944Z,3.98
2022-11-14T06:40:04.532Z,4.10
2022-11-14T06:42:30.907Z,4.01
2022-11-14T06:44:57.325Z,4.04
2022-11-14T06:47:23.759Z,4.03
2022-11-14T06:49:50.209Z,4.04
2022-11-14T06:52:16.597Z,4.01
2022-11-14T06:54:43.045Z,3.90
2022-11-14T06:57:09.441Z,3.77
2022-11-14T06:59:35.891Z,3.67
2022-11-14T07:02:02.793Z,3.54
2022-11-14T07:04:29.256Z,3.45
2022-11-14T07:06:55.765Z,3.43
2022-11-14T07:09:22.224Z,3.56
2022-11-14T07:11:48.648Z,3.59
2022-11-14T07:14:15.101Z,3.87
2022-11-14T07:16:41.530Z,3.87
2022-11-14T07:19:11.165Z,3.82
2022-11-14T07:21:37.654Z,3.81
2022-11-14T07:24:04.188Z,3.73
2022-11-14T07:26:30.566Z,4.00
2022-11-14T07:29:02.168Z,4.00
2022-11-14T07:31:29.344Z,4.03
2022-11-14T07:33:55.819Z,4.17
2022-11-14T07:36:22.246Z,4.41
2022-11-14T07:38:54.719Z,4.73
2022-11-14T07:41:21.124Z,5.03
2022-11-14T07:43:47.552Z,5.15
2022-11-14T07:46:14.991Z,5.04
2022-11-14T07:48:41.577Z,5.06
2022-11-14T07:51:09.999Z,5.11
2022-11-14T07:53:36.562Z,5.18
2022-11-14T07:56:04.116Z,5.29
2022-11-14T07:58:30.846Z,5.43
2022-11-14T08:01:00.547Z,5.52
2022-11-14T08:03:27.018Z,5.63
2022-11-14T08:05:59.803Z,5.59
2022-11-14T08:08:26.245Z,5.58
2022-11-14T08:10:55.661Z,5.63
2022-11-14T08:13:37.408Z,5.76
2022-11-14T08:16:12.390Z,5.77
2022-11-14T08:18:39.712Z,5.71
2022-11-14T08:21:06.230Z,5.61
2022-11-14T08:23:32.732Z,5.22
2022-11-14T08:25:59.687Z,5.21
2022-11-14T08:28:26.102Z,5.33
2022-11-14T08:30:52.505Z,5.39
2022-11-14T08:33:18.947Z,5.38
2022-11-14T08:35:45.363Z,5.31
2022-11-14T08:38:11.796Z,5.18
2022-11-14T08:40:39.869Z,5.30
2022-11-14T08:43:06.352Z,5.23
2022-11-14T08:45:32.826Z,5.39
2022-11-14T08:47:59.251Z,5.27
2022-11-14T08:50:25.790Z,5.05
2022-11-14T08:52:52.392Z,5.11
2022-11-14T08:55:19.393Z,5.19
2022-11-14T08:57:49.426Z,5.28
2022-11-14T09:00:17.043Z,5.39
2022-11-14T09:02:43.533Z,5.43
2022-11-14T09:05:09.970Z,5.33
2022-11-14T09:07:36.539Z,5.07
2022-11-14T09:10:03.053Z,4.89
2022-11-14T09:12:29.545Z,4.97
2022-11-14T09:14:55.958Z,5.04
2022-11-14T09:17:22.394Z,5.09
2022-11-14T09:19:48.814Z,4.91
2022-11-14T09:22:15.313Z,4.91
2022-11-14T09:24:41.758Z,4.70
2022-11-14T09:27:08.155Z,4.81
2022-11-14T09:29:34.586Z,4.79
2022-11-14T09:32:01.000Z,4.78
2022-11-14T09:34:27.467Z,4.88
2022-11-14T09:36:53.941Z,4.91
2022-11-14T09:39:20.464Z,4.92
2022-11-14T09:41:46.875Z,4.93
2022-11-14T09:44:17.752Z,5.07
2022-11-14T09:46:49.170Z,5.24
2022-11-14T09:49:23.481Z,5.21
2022-11-14T09:51:50.527Z,5.21
2022-11-14T09:54:20.054Z,5.24
2022-11-14T09:56:46.463Z,5.27
2022-11-14T09:59:13.093Z,5.22
2022-11-14T10:01:42.605Z,5.32
2022-11-14T10:04:15.220Z,5.40
2022-11-14T10:06:44.693Z,5.40
2022-11-14T10:09:30.946Z,5.46
2022-11-14T10:12:04.796Z,5.60
2022-11-14T10:14:49.510Z,5.76
2022-11-14T10:17:15.952Z,5.84
2022-11-14T10:19:52.916Z,5.78
2022-11-14T10:22:31.551Z,5.82
2022-11-14T10:25:13.422Z,5.84
2022-11-14T10:27:43.398Z,5.81
2022-11-14T10:30:13.566Z,5.86
2022-11-14T10:32:43.059Z,6.11
2022-11-14T10:35:18.761Z,7.07
2022-11-14T10:37:45.133Z,9.62
2022-11-14T10:40:18.795Z,12.32
2022-11-14T10:42:47.239Z,13.76
2022-11-14T10:45:13.648Z,14.96
2022-11-14T10:47:41.481Z,14.10
2022-11-14T10:50:28.192Z,14.45
2022-11-14T10:52:56.345Z,11.62
2022-11-14T10:55:43.485Z,10.93
2022-11-14T10:58:11.070Z,10.26
2022-11-14T11:00:37.645Z,9.37
2022-11-14T11:03:04.135Z,9.16
2022-11-14T11:05:30.756Z,8.56
2022-11-14T11:08:44.148Z,8.43
2022-11-14T11:11:22.849Z,8.86
2022-11-14T11:13:55.930Z,8.38
2022-11-14T11:16:23.247Z,7.94
2022-11-14T11:18:50.822Z,8.37
2022-11-14T11:21:21.541Z,8.25
2022-11-14T11:23:57.662Z,8.14
2022-11-14T11:26:31.091Z,7.36
2022-11-14T11:29:09.766Z,7.48
2022-11-14T11:31:55.465Z,7.78
2022-11-14T11:34:25.742Z,8.07
2022-11-14T11:36:56.009Z,8.19
2022-11-14T11:39:27.346Z,7.80
2022-11-14T11:42:10.975Z,7.67
2022-11-14T11:44:38.471Z,7.83
2022-11-14T11:47:05.665Z,8.40
2022-11-14T11:49:50.101Z,9.12
2022-11-14T11:52:34.810Z,10.43
2022-11-14T11:55:01.235Z,10.31
2022-11-14T11:57:34.934Z,9.25
2022-11-14T12:00:15.038Z,8.47
2022-11-14T12:02:48.154Z,8.14
2022-11-14T12:05:16.440Z,7.97
2022-11-14T12:07:58.753Z,8.06
2022-11-14T12:10:26.075Z,8.00
2022-11-14T12:13:07.816Z,7.69
2022-11-14T12:15:34.398Z,7.65
2022-11-14T12:18:27.288Z,7.90
2022-11-14T12:21:20.225Z,8.06
2022-11-14T12:24:05.626Z,7.65
2022-11-14T12:26:51.439Z,7.68
2022-11-14T12:29:29.970Z,7.70
2022-11-14T12:32:02.774Z,7.64
2022-11-14T12:34:33.286Z,8.06
2022-11-14T12:36:59.771Z,7.58
2022-11-14T12:39:30.202Z,7.59
2022-11-14T12:42:03.966Z,8.35
2022-11-14T12:44:30.407Z,8.37
2022-11-14T12:47:06.198Z,7.74
2022-11-14T12:49:47.924Z,7.58
2022-11-14T12:52:33.267Z,7.67
2022-11-14T12:54:59.690Z,7.26
2022-11-14T12:57:49.518Z,7.18
2022-11-14T13:00:16.114Z,7.08
2022-11-14T13:03:01.338Z,7.08
2022-11-14T13:05:34.130Z,6.97
2022-11-14T13:08:00.539Z,7.01
2022-11-14T13:10:30.788Z,7.25
2022-11-14T13:13:15.870Z,7.49
2022-11-14T13:16:21.068Z,7.57
2022-11-14T13:19:16.571Z,7.51
2022-11-14T13:22:01.457Z,7.49
2022-11-14T13:24:28.342Z,7.08
2022-11-14T13:26:54.922Z,6.93
2022-11-14T13:29:39.764Z,6.92
2022-11-14T13:32:09.874Z,6.92
2022-11-14T13:34:36.276Z,7.17
2022-11-14T13:37:14.926Z,7.30
2022-11-14T13:39:45.206Z,7.36
2022-11-14T13:42:11.618Z,7.43
2022-11-14T13:44:56.827Z,7.31
2022-11-14T13:47:23.220Z,7.10
2022-11-14T13:49:52.618Z,7.04
2022-11-14T13:52:19.067Z,6.85
2022-11-14T13:54:46.701Z,6.75
2022-11-14T13:57:19.239Z,6.80
2022-11-14T14:00:06.447Z,6.68
2022-11-14T14:02:45.128Z,6.81
2022-11-14T14:05:21.883Z,6.82
2022-11-14T14:07:54.409Z,6.58
2022-11-14T14:10:39.209Z,6.43
2022-11-14T14:13:11.727Z,6.31
2022-11-14T14:15:49.789Z,6.34
2022-11-14T14:18:33.861Z,6.30
2022-11-14T14:21:19.305Z,6.41
2022-11-14T14:23:45.664Z,6.35
2022-11-14T14:26:12.078Z,6.32
2022-11-14T14:28:44.496Z,6.18
2022-11-14T14:31:12.277Z,6.17
2022-11-14T14:33:45.694Z,6.20
2022-11-14T14:36:25.818Z,6.12
2022-11-14T14:39:11.079Z,6.10
2022-11-14T14:41:37.545Z,6.14
2022-11-14T14:44:03.965Z,6.21
2022-11-14T14:46:31.281Z,6.23
2022-11-14T14:48:58.051Z,6.14
2022-11-14T14:51:34.856Z,6.19
2022-11-14T14:54:01.447Z,6.17
2022-11-14T14:56:28.740Z,6.23
2022-11-14T14:58:55.234Z,6.17
2022-11-14T15:01:23.777Z,6.14
2022-11-14T15:03:51.777Z,6.19
2022-11-14T15:06:22.244Z,6.23
2022-11-14T15:08:48.701Z,6.27
2022-11-14T15:11:15.157Z,6.27
2022-11-14T15:13:41.582Z,6.32
2022-11-14T15:16:08.336Z,6.35
2022-11-14T15:18:35.052Z,6.34
2022-11-14T15:21:15.466Z,6.41
2022-11-14T15:23:41.951Z,6.45
2022-11-14T15:26:12.633Z,6.48
2022-11-14T15:28:39.040Z,6.50
2022-11-14T15:31:05.478Z,6.54
2022-11-14T15:33:32.914Z,6.57
2022-11-14T15:36:07.136Z,6.54
2022-11-14T15:38:48.998Z,6.57
2022-11-14T15:41:19.983Z,6.54
2022-11-14T15:43:50.459Z,6.59
2022-11-14T15:46:29.241Z,6.56
2022-11-14T15:48:55.655Z,6.58
2022-11-14T15:51:40.863Z,6.62
2022-11-14T15:54:18.847Z,6.62
2022-11-14T15:56:45.354Z,6.63
2022-11-14T15:59:12.104Z,6.66
2022-11-14T16:01:38.612Z,6.66
2022-11-14T16:04:05.128Z,6.66
2022-11-14T16:06:31.728Z,6.72
2022-11-14T16:08:58.115Z,6.69
2022-11-14T16:11:24.558Z,6.69
2022-11-14T16:13:50.948Z,6.73
2022-11-14T16:16:17.384Z,6.75
2022-11-14T16:18:43.831Z,6.78
2022-11-14T16:21:13.902Z,6.76
2022-11-14T16:23:40.368Z,6.77
2022-11-14T16:26:06.772Z,6.76
2022-11-14T16:28:33.166Z,6.77
2022-11-14T16:30:59.562Z,6.74
2022-11-14T16:33:25.976Z,6.73
2022-11-14T16:35:52.399Z,6.78
2022-11-14T16:38:18.886Z,6.77
2022-11-14T16:40:45.318Z,6.81
2022-11-14T16:43:12.390Z,6.80
2022-11-14T16:45:41.782Z,6.80
2022-11-14T16:48:08.250Z,6.80
2022-11-14T16:50:34.694Z,6.81
2022-11-14T16:53:01.120Z,6.81
2022-11-14T16:55:27.515Z,6.79
2022-11-14T16:57:54.043Z,6.83
2022-11-14T17:00:20.465Z,6.85
2022-11-14T17:02:47.615Z,6.85
2022-11-14T17:05:14.105Z,6.81
2022-11-14T17:07:40.632Z,6.81
2022-11-14T17:10:07.482Z,6.81
2022-11-14T17:12:34.179Z,6.82
2022-11-14T17:15:00.641Z,6.85
2022-11-14T17:17:27.080Z,6.85
2022-11-14T17:19:53.482Z,6.90
2022-11-14T17:22:20.125Z,6.86
2022-11-14T17:24:46.527Z,6.89
2022-11-14T17:27:13.076Z,6.87
2022-11-14T17:29:39.536Z,6.91
2022-11-14T17:32:05.990Z,6.92
2022-11-14T17:34:32.426Z,6.88
2022-11-14T17:36:58.838Z,6.90
2022-11-14T17:39:26.220Z,6.89
2022-11-14T17:41:52.621Z,6.85
2022-11-14T17:44:19.074Z,6.86
2022-11-14T17:46:46.168Z,6.88
2022-11-14T17:49:12.576Z,6.89
2022-11-14T17:51:38.968Z,6.88
2022-11-14T17:54:05.439Z,6.87
2022-11-14T17:56:31.902Z,6.86
2022-11-14T17:58:58.406Z,6.91
2022-11-14T18:01:25.043Z,6.91
2022-11-14T18:03:51.586Z,6.90
2022-11-14T18:06:19.387Z,6.89
2022-11-14T18:08:45.822Z,6.95
2022-11-14T18:11:12.849Z,6.93
2022-11-14T18:13:39.553Z,6.94
2022-11-14T18:16:06.061Z,6.97
2022-11-14T18:18:33.360Z,6.90
2022-11-14T18:21:06.023Z,6.94
2022-11-14T18:23:32.498Z,6.95
2022-11-14T18:25:58.935Z,6.94
2022-11-14T18:28:25.341Z,6.97
2022-11-14T18:30:55.725Z,6.97
2022-11-14T18:33:22.497Z,6.98
2022-11-14T18:35:58.562Z,6.97
2022-11-14T18:38:25.065Z,6.92
2022-11-14T18:40:56.901Z,6.90
2022-11-14T18:43:23.888Z,6.99
2022-11-14T18:45:50.942Z,6.93
2022-11-14T18:48:17.362Z,6.99
2022-11-14T18:50:43.786Z,7.01
2022-11-14T18:53:10.197Z,6.88
2022-11-14T18:55:40.379Z,6.83
2022-11-14T18:58:06.963Z,6.80
2022-11-14T19:00:33.520Z,6.82
2022-11-14T19:03:03.544Z,6.76
2022-11-14T19:05:35.277Z,6.70
2022-11-14T19:08:02.024Z,6.61
2022-11-14T19:10:28.445Z,6.54
2022-11-14T19:12:54.827Z,6.51
2022-11-14T19:15:21.279Z,6.44
2022-11-14T19:17:48.477Z,6.36
2022-11-14T19:20:15.087Z,6.26
2022-11-14T19:22:41.569Z,6.15
2022-11-14T19:25:09.148Z,6.07
2022-11-14T19:27:35.588Z,6.06
2022-11-14T19:30:02.095Z,5.96
2022-11-14T19:32:28.485Z,6.02
2022-11-14T19:34:54.911Z,5.94
2022-11-14T19:37:21.338Z,5.94
2022-11-14T19:39:47.902Z,5.89
2022-11-14T19:42:14.315Z,5.82
2022-11-14T19:44:40.713Z,5.71
2022-11-14T19:47:07.080Z,5.72
2022-11-14T19:49:33.588Z,5.66
2022-11-14T19:51:59.980Z,5.60
2022-11-14T19:54:26.424Z,5.54
2022-11-14T19:56:52.835Z,5.47
2022-11-14T19:59:24.132Z,5.35
2022-11-14T20:01:55.229Z,5.36
2022-11-14T20:04:22.070Z,5.38
2022-11-14T20:06:48.582Z,5.34
2022-11-14T20:09:15.884Z,5.38
2022-11-14T20:11:42.460Z,5.31
2022-11-14T20:14:09.553Z,5.29
2022-11-14T20:16:36.715Z,5.23
2022-11-14T20:19:03.301Z,5.22
2022-11-14T20:21:31.363Z,5.20
2022-11-14T20:23:57.911Z,5.27
2022-11-14T20:26:24.483Z,5.24
2022-11-14T20:28:52.866Z,5.32
2022-11-14T20:31:20.899Z,5.35
2022-11-14T20:33:47.641Z,5.36
2022-11-14T20:36:15.084Z,5.48
2022-11-14T20:38:41.664Z,5.53
2022-11-14T20:41:08.110Z,5.56
2022-11-14T20:43:34.537Z,5.61
2022-11-14T20:46:04.846Z,5.64
2022-11-14T20:48:31.771Z,5.64
2022-11-14T20:51:02.615Z,5.65
2022-11-14T20:53:29.329Z,5.83
2022-11-14T20:55:55.984Z,5.91
2022-11-14T20:58:22.379Z,5.95
2022-11-14T21:00:52.041Z,6.00
2022-11-14T21:03:18.562Z,6.02
2022-11-14T21:05:45.004Z,6.14
2022-11-14T21:08:11.685Z,6.25
2022-11-14T21:10:47.094Z,6.26
2022-11-14T21:13:35.385Z,6.45
2022-11-14T21:16:02.416Z,6.63
2022-11-14T21:18:29.059Z,6.63
2022-11-14T21:21:02.907Z,6.73
2022-11-14T21:23:29.666Z,6.72
2022-11-14T21:26:02.435Z,6.82
2022-11-14T21:28:30.122Z,6.91
2022-11-14T21:30:58.577Z,6.87
2022-11-14T21:33:25.800Z,6.87
2022-11-14T21:35:52.318Z,6.87
2022-11-14T21:38:18.719Z,6.84
2022-11-14T21:40:51.133Z,6.89
2022-11-14T21:43:17.512Z,6.80
2022-11-14T21:45:43.947Z,6.76
2022-11-14T21:48:10.339Z,6.79
2022-11-14T21:50:36.768Z,6.73
2022-11-14T21:53:03.203Z,6.74
2022-11-14T21:55:32.615Z,6.78
2022-11-14T21:57:58.995Z,6.87
2022-11-14T22:00:25.420Z,6.95
2022-11-14T22:03:12.919Z,7.03
2022-11-14T22:05:41.430Z,7.06
2022-11-14T22:08:07.818Z,7.02
2022-11-14T22:10:34.297Z,7.11
2022-11-14T22:13:00.699Z,7.18
2022-11-14T22:15:27.105Z,7.19
2022-11-14T22:17:54.164Z,7.14
2022-11-14T22:20:20.572Z,7.34
2022-11-14T22:22:46.955Z,7.29
2022-11-14T22:25:13.474Z,7.36
2022-11-14T22:27:39.870Z,7.31
2022-11-14T22:30:06.574Z,7.38
2022-11-14T22:32:32.971Z,7.39
2022-11-14T22:34:59.399Z,7.41
2022-11-14T22:37:25.813Z,7.42
2022-11-14T22:39:52.201Z,7.40
2022-11-14T22:42:18.606Z,7.54
2022-11-14T22:44:45.027Z,7.55
2022-11-14T22:47:11.413Z,7.58
2022-11-14T22:49:37.798Z,7.54
2022-11-14T22:52:04.322Z,7.64
2022-11-14T22:54:30.694Z,7.84
2022-11-14T22:56:57.110Z,7.87
2022-11-14T22:59:23.529Z,7.88
2022-11-14T23:01:49.935Z,7.88
2022-11-14T23:04:16.434Z,7.85
2022-11-14T23:06:42.966Z,7.89
2022-11-14T23:09:09.340Z,7.95
2022-11-14T23:11:35.773Z,7.89
2022-11-14T23:14:02.157Z,8.08
2022-11-14T23:16:29.710Z,8.20
2022-11-14T23:18:57.867Z,8.31
2022-11-14T23:21:25.301Z,8.48
2022-11-14T23:23:55.468Z,8.45
2022-11-14T23:26:22.078Z,8.45
2022-11-14T23:28:48.594Z,8.42
2022-11-14T23:31:19.178Z,8.45
2022-11-14T23:33:48.805Z,8.45
2022-11-14T23:36:15.522Z,8.58
2022-11-14T23:38:41.992Z,8.72
2022-11-14T23:41:09.684Z,8.82
2022-11-14T23:43:36.158Z,8.89
2022-11-14T23:46:02.589Z,8.89
2022-11-14T23:48:29.069Z,8.90
2022-11-14T23:50:56.172Z,8.95
2022-11-14T23:53:22.841Z,8.97
2022-11-14T23:55:53.409Z,8.98
2022-11-14T23:58:20.058Z,9.01
